createdAt,value
2018-04-28T00:01:00.238Z,8.17
2018-04-28T00:03:29.490Z,8.60
2018-04-28T00:05:58.031Z,7.63
2018-04-28T00:08:35.814Z,6.97
2018-04-28T00:11:04.380Z,8.53
2018-04-28T00:13:33.598Z,10.03
2018-04-28T00:16:14.372Z,7.27
2018-04-28T00:19:02.007Z,8.37
2018-04-28T00:21:33.158Z,7.97
2018-04-28T00:24:01.340Z,7.20
2018-04-28T00:26:31.045Z,4.67
2018-04-28T00:29:05.107Z,9.23
2018-04-28T00:31:40.107Z,8.27
2018-04-28T00:34:08.699Z,6.13
2018-04-28T00:39:39.095Z,10.47
2018-04-28T00:42:10.859Z,6.93
2018-04-28T00:44:39.462Z,7.63
2018-04-28T00:47:14.151Z,8.67
2018-04-28T00:49:44.250Z,5.37
2018-04-28T00:52:12.911Z,5.53
2018-04-28T00:54:46.346Z,5.67
2018-04-28T00:57:16.229Z,5.73
2018-04-28T00:59:51.502Z,6.13
2018-04-28T01:02:20.175Z,7.83
2018-04-28T01:04:48.804Z,10.27
2018-04-28T01:07:23.433Z,7.70
2018-04-28T01:10:10.389Z,6.93
2018-04-28T01:12:39.227Z,8.73
2018-04-28T01:15:14.336Z,5.87
2018-04-28T01:17:54.768Z,6.03
2018-04-28T01:20:36.451Z,11.80
2018-04-28T01:23:10.109Z,6.30
2018-04-28T01:25:42.395Z,10.83
2018-04-28T01:31:24.875Z,7.13
2018-04-28T01:34:01.696Z,6.37
2018-04-28T01:36:33.803Z,6.37
2018-04-28T01:39:06.319Z,7.70
2018-04-28T01:41:41.959Z,7.13
2018-04-28T01:44:16.546Z,6.83
2018-04-28T01:46:53.211Z,6.90
2018-04-28T01:49:36.434Z,5.93
2018-04-28T01:52:06.342Z,11.07
2018-04-28T01:54:50.410Z,5.40
2018-04-28T01:57:24.570Z,9.33
2018-04-28T01:59:57.000Z,7.43
2018-04-28T02:02:51.219Z,8.00
2018-04-28T02:05:21.926Z,6.03
2018-04-28T02:07:50.821Z,9.67
2018-04-28T02:10:24.383Z,9.13
2018-04-28T02:13:13.203Z,11.27
2018-04-28T02:15:44.988Z,7.60
2018-04-28T02:18:36.152Z,7.40
2018-04-28T02:21:23.969Z,8.87
2018-04-28T02:26:49.474Z,8.97
2018-04-28T02:32:16.188Z,7.77
2018-04-28T02:34:50.631Z,9.27
2018-04-28T02:40:27.618Z,8.60
2018-04-28T02:42:59.074Z,8.67
2018-04-28T02:45:43.896Z,6.67
2018-04-28T02:48:13.795Z,10.43
2018-04-28T02:50:45.119Z,8.87
2018-04-28T02:56:25.202Z,5.97
2018-04-28T02:58:56.525Z,9.07
2018-04-28T03:01:45.858Z,7.47
2018-04-28T03:04:17.918Z,10.83
2018-04-28T03:06:54.595Z,8.87
2018-04-28T03:09:28.343Z,6.63
2018-04-28T03:11:59.552Z,7.30
2018-04-28T03:14:28.957Z,6.87
2018-04-28T03:16:58.214Z,10.40
2018-04-28T03:19:29.023Z,8.97
2018-04-28T03:21:57.607Z,6.23
2018-04-28T03:24:48.025Z,9.30
2018-04-28T03:27:21.106Z,5.53
2018-04-28T03:32:46.490Z,8.23
2018-04-28T03:35:17.811Z,8.90
2018-04-28T03:37:53.167Z,6.27
2018-04-28T03:40:23.534Z,11.60
2018-04-28T03:43:00.002Z,6.97
2018-04-28T03:45:40.150Z,10.13
2018-04-28T03:48:28.835Z,10.13
2018-04-28T03:51:09.058Z,8.40
2018-04-28T03:53:45.154Z,11.43
2018-04-28T03:56:14.260Z,10.67
2018-04-28T03:58:55.629Z,10.40
2018-04-28T04:01:35.919Z,11.47
2018-04-28T04:04:06.155Z,13.87
2018-04-28T04:06:56.707Z,10.27
2018-04-28T04:09:30.143Z,13.70
2018-04-28T04:12:02.009Z,8.40
2018-04-28T04:14:36.710Z,8.97
2018-04-28T04:17:29.143Z,10.27
2018-04-28T04:20:09.966Z,9.63
2018-04-28T04:22:48.766Z,11.63
2018-04-28T04:25:30.035Z,9.00
2018-04-28T04:28:03.364Z,7.30
2018-04-28T04:30:38.978Z,7.80
2018-04-28T04:33:13.268Z,8.20
2018-04-28T04:35:43.007Z,7.63
2018-04-28T04:38:14.246Z,6.47
2018-04-28T04:41:02.340Z,11.73
2018-04-28T04:43:38.271Z,11.33
2018-04-28T04:46:16.834Z,18.77
2018-04-28T04:52:27.623Z,16.60
2018-04-28T04:54:56.151Z,15.90
2018-04-28T04:57:51.312Z,20.10
2018-04-28T05:03:24.387Z,12.17
2018-04-28T05:08:53.410Z,13.43
2018-04-28T05:11:28.621Z,15.23
2018-04-28T05:14:28.239Z,17.57
2018-04-28T05:17:04.514Z,9.97
2018-04-28T05:19:38.814Z,12.33
2018-04-28T05:22:16.503Z,9.40
2018-04-28T05:24:49.846Z,12.20
2018-04-28T05:27:23.281Z,12.43
2018-04-28T05:29:55.356Z,9.73
2018-04-28T05:35:50.379Z,11.77
2018-04-28T05:38:29.034Z,9.53
2018-04-28T05:41:14.066Z,9.27
2018-04-28T05:43:48.542Z,14.57
2018-04-28T05:46:27.619Z,9.93
2018-04-28T05:49:04.917Z,12.63
2018-04-28T05:54:55.131Z,12.93
2018-04-28T05:57:44.459Z,13.17
2018-04-28T06:00:25.285Z,13.07
2018-04-28T06:03:10.636Z,10.73
2018-04-28T06:06:01.199Z,10.97
2018-04-28T06:08:32.126Z,9.17
2018-04-28T06:11:13.293Z,11.83
2018-04-28T06:13:54.237Z,11.03
2018-04-28T06:16:34.354Z,12.80
2018-04-28T06:19:07.382Z,11.43
2018-04-28T06:21:35.979Z,9.93
2018-04-28T06:24:04.504Z,12.60
2018-04-28T06:26:33.586Z,12.50
2018-04-28T06:29:02.074Z,14.07
2018-04-28T06:31:31.150Z,8.97
2018-04-28T06:34:00.300Z,15.43
2018-04-28T06:36:29.045Z,12.43
2018-04-28T06:38:58.094Z,11.60
2018-04-28T06:41:26.283Z,11.87
2018-04-28T06:43:56.087Z,13.60
2018-04-28T06:46:25.132Z,13.90
2018-04-28T06:48:54.271Z,13.50
2018-04-28T06:51:23.542Z,15.77
2018-04-28T06:53:51.746Z,12.00
2018-04-28T06:56:20.331Z,10.57
2018-04-28T06:58:48.897Z,10.63
2018-04-28T07:01:17.539Z,11.17
2018-04-28T07:03:46.065Z,11.10
2018-04-28T07:06:14.656Z,9.63
2018-04-28T07:08:43.220Z,10.97
2018-04-28T07:11:12.359Z,7.03
2018-04-28T07:13:41.382Z,12.60
2018-04-28T07:16:10.990Z,7.93
2018-04-28T07:18:40.654Z,14.90
2018-04-28T07:21:09.667Z,12.33
2018-04-28T07:23:38.538Z,16.07
2018-04-28T07:26:07.914Z,8.83
2018-04-28T07:28:36.963Z,7.53
2018-04-28T07:31:06.623Z,10.63
2018-04-28T07:33:36.435Z,8.63
2018-04-28T07:36:07.139Z,10.10
2018-04-28T07:38:35.555Z,9.73
2018-04-28T07:41:06.380Z,9.77
2018-04-28T07:43:34.545Z,11.47
2018-04-28T07:46:03.222Z,13.30
2018-04-28T07:48:32.154Z,15.20
2018-04-28T07:51:00.829Z,11.90
2018-04-28T07:53:29.216Z,8.47
2018-04-28T07:55:58.057Z,7.47
2018-04-28T07:58:26.480Z,7.30
2018-04-28T08:00:55.420Z,10.93
2018-04-28T08:03:24.366Z,9.97
2018-04-28T08:05:54.457Z,9.77
2018-04-28T08:08:22.603Z,10.97
2018-04-28T08:10:52.122Z,10.67
2018-04-28T08:13:21.562Z,11.03
2018-04-28T08:15:51.259Z,9.27
2018-04-28T08:18:20.196Z,9.67
2018-04-28T08:20:48.799Z,15.40
2018-04-28T08:23:17.379Z,10.03
2018-04-28T08:25:45.587Z,11.83
2018-04-28T08:28:14.215Z,10.73
2018-04-28T08:30:42.845Z,9.37
2018-04-28T08:33:11.371Z,10.27
2018-04-28T08:35:40.823Z,10.50
2018-04-28T08:38:09.767Z,6.63
2018-04-28T08:40:38.410Z,13.47
2018-04-28T08:43:06.560Z,15.47
2018-04-28T08:45:35.280Z,11.30
2018-04-28T08:48:05.034Z,9.13
2018-04-28T08:50:33.452Z,8.93
2018-04-28T08:53:02.085Z,10.27
2018-04-28T08:55:30.608Z,7.63
2018-04-28T08:57:59.747Z,12.83
2018-04-28T09:00:30.970Z,7.40
2018-04-28T09:02:59.591Z,9.93
2018-04-28T09:05:28.667Z,9.97
2018-04-28T09:07:57.615Z,7.60
2018-04-28T09:10:26.358Z,11.67
2018-04-28T09:12:55.293Z,8.27
2018-04-28T09:15:23.527Z,7.30
2018-04-28T09:17:52.144Z,6.60
2018-04-28T09:20:20.735Z,8.40
2018-04-28T09:22:49.197Z,9.73
2018-04-28T09:25:17.782Z,7.70
2018-04-28T09:27:46.314Z,10.43
2018-04-28T09:30:14.521Z,8.97
2018-04-28T09:32:43.088Z,8.40
2018-04-28T09:35:12.242Z,9.13
2018-04-28T09:37:40.871Z,7.23
2018-04-28T09:40:09.292Z,7.83
2018-04-28T09:42:37.714Z,8.13
2018-04-28T09:45:06.134Z,6.60
2018-04-28T09:47:35.374Z,12.37
2018-04-28T09:50:05.892Z,12.83
2018-04-28T09:52:35.367Z,7.40
2018-04-28T09:55:03.669Z,6.87
2018-04-28T09:57:33.555Z,11.40
2018-04-28T10:00:13.895Z,7.33
2018-04-28T10:02:42.122Z,13.10
2018-04-28T10:05:12.200Z,10.27
2018-04-28T10:07:40.360Z,9.80
2018-04-28T10:10:08.530Z,8.70
2018-04-28T10:12:38.274Z,7.90
2018-04-28T10:15:06.443Z,6.73
2018-04-28T10:17:35.247Z,8.10
2018-04-28T10:20:03.538Z,6.27
2018-04-28T10:22:31.621Z,7.20
2018-04-28T10:25:00.301Z,8.93
2018-04-28T10:27:28.442Z,5.37
2018-04-28T10:29:56.715Z,6.70
2018-04-28T10:32:25.276Z,5.67
2018-04-28T10:34:54.194Z,5.40
2018-04-28T10:37:23.242Z,7.93
2018-04-28T10:39:51.755Z,9.40
2018-04-28T10:42:21.534Z,6.73
2018-04-28T10:44:50.177Z,7.53
2018-04-28T10:47:18.359Z,7.67
2018-04-28T10:49:47.444Z,8.40
2018-04-28T10:52:15.935Z,6.73
2018-04-28T10:54:45.103Z,5.93
2018-04-28T10:57:14.090Z,7.10
2018-04-28T10:59:43.345Z,6.63
2018-04-28T11:02:12.295Z,7.47
2018-04-28T11:04:41.202Z,7.17
2018-04-28T11:07:09.370Z,6.63
2018-04-28T11:09:37.940Z,7.63
2018-04-28T11:12:06.082Z,5.03
2018-04-28T11:14:34.263Z,5.93
2018-04-28T11:17:03.413Z,6.03
2018-04-28T11:19:32.375Z,4.83
2018-04-28T11:22:02.963Z,5.23
2018-04-28T11:24:32.110Z,4.47
2018-04-28T11:27:00.544Z,5.50
2018-04-28T11:29:29.070Z,3.93
2018-04-28T11:31:57.897Z,4.60
2018-04-28T11:34:27.051Z,5.13
2018-04-28T11:36:56.494Z,6.57
2018-04-28T11:39:25.058Z,6.33
2018-04-28T11:41:53.474Z,4.90
2018-04-28T11:44:22.407Z,8.80
2018-04-28T11:46:50.840Z,6.30
2018-04-28T11:49:19.382Z,4.97
2018-04-28T11:51:49.834Z,5.20
2018-04-28T11:54:18.263Z,5.53
2018-04-28T11:56:48.179Z,4.53
2018-04-28T11:59:16.381Z,5.60
2018-04-28T12:01:44.770Z,3.63
2018-04-28T12:04:14.069Z,4.67
2018-04-28T12:06:42.699Z,5.97
2018-04-28T12:09:11.329Z,4.67
2018-04-28T12:11:40.169Z,4.70
2018-04-28T12:14:09.320Z,5.03
2018-04-28T12:16:38.159Z,4.60
2018-04-28T12:19:06.322Z,4.13
2018-04-28T12:21:36.138Z,4.40
2018-04-28T12:24:04.559Z,5.63
2018-04-28T12:26:33.135Z,5.77
2018-04-28T12:29:01.728Z,4.53
2018-04-28T12:31:30.253Z,4.93
2018-04-28T12:33:58.458Z,4.20
2018-04-28T12:36:26.955Z,4.33
2018-04-28T12:38:55.138Z,3.67
2018-04-28T12:41:23.625Z,3.80
2018-04-28T12:43:52.254Z,6.43
2018-04-28T12:46:20.780Z,7.20
2018-04-28T12:48:49.631Z,4.90
2018-04-28T12:51:18.106Z,8.40
2018-04-28T12:53:46.971Z,6.97
2018-04-28T12:56:15.174Z,7.00
2018-04-28T12:58:43.812Z,6.83
2018-04-28T13:01:11.990Z,5.33
2018-04-28T13:03:40.738Z,6.03
2018-04-28T13:06:09.035Z,8.30
2018-04-28T13:08:38.126Z,6.13
2018-04-28T13:11:06.770Z,5.73
2018-04-28T13:13:35.478Z,7.87
2018-04-28T13:16:04.131Z,5.77
2018-04-28T13:18:32.908Z,5.90
2018-04-28T13:21:01.455Z,5.07
2018-04-28T13:23:30.190Z,7.23
2018-04-28T13:25:58.375Z,6.60
2018-04-28T13:28:27.040Z,7.30
2018-04-28T13:30:56.225Z,6.73
2018-04-28T13:33:24.394Z,5.97
2018-04-28T13:35:53.032Z,4.87
2018-04-28T13:38:22.846Z,5.57
2018-04-28T13:40:51.894Z,7.20
2018-04-28T13:43:20.718Z,5.67
2018-04-28T13:45:49.870Z,5.70
2018-04-28T13:48:18.110Z,5.53
2018-04-28T13:50:46.239Z,5.30
2018-04-28T13:53:16.090Z,7.67
2018-04-28T13:55:44.678Z,6.30
2018-04-28T13:58:13.107Z,5.67
2018-04-28T14:00:41.315Z,9.97
2018-04-28T14:03:09.747Z,4.90
2018-04-28T14:05:38.304Z,6.57
2018-04-28T14:08:07.232Z,4.93
2018-04-28T14:10:36.279Z,4.80
2018-04-28T14:13:04.891Z,7.63
2018-04-28T14:15:34.286Z,5.20
2018-04-28T14:18:04.680Z,7.90
2018-04-28T14:20:33.319Z,11.17
2018-04-28T14:23:01.739Z,6.27
2018-04-28T14:25:30.602Z,5.07
2018-04-28T14:28:00.008Z,5.60
2018-04-28T14:30:28.184Z,5.73
2018-04-28T14:32:57.152Z,6.50
2018-04-28T14:35:26.357Z,7.50
2018-04-28T14:37:54.738Z,4.43
2018-04-28T14:40:23.195Z,7.50
2018-04-28T14:42:51.335Z,7.77
2018-04-28T14:45:20.523Z,7.20
2018-04-28T14:47:49.191Z,6.37
2018-04-28T14:50:17.339Z,5.47
2018-04-28T14:52:46.011Z,5.80
2018-04-28T14:55:14.750Z,8.73
2018-04-28T14:57:43.053Z,7.57
2018-04-28T15:00:11.505Z,4.60
2018-04-28T15:02:39.855Z,7.77
2018-04-28T15:05:09.487Z,5.03
2018-04-28T15:07:38.125Z,6.23
2018-04-28T15:10:06.950Z,5.53
2018-04-28T15:12:35.594Z,6.80
2018-04-28T15:15:04.120Z,4.70
2018-04-28T15:17:32.854Z,5.43
2018-04-28T15:20:01.460Z,5.80
2018-04-28T15:22:30.079Z,6.67
2018-04-28T15:24:58.249Z,4.67
2018-04-28T15:27:27.480Z,3.67
2018-04-28T15:29:55.903Z,6.10
2018-04-28T15:32:24.051Z,4.60
2018-04-28T15:34:52.687Z,4.73
2018-04-28T15:37:21.999Z,6.63
2018-04-28T15:39:50.138Z,6.20
2018-04-28T15:42:19.363Z,4.70
2018-04-28T15:44:48.329Z,4.33
2018-04-28T15:47:17.446Z,5.83
2018-04-28T15:49:46.090Z,7.17
2018-04-28T15:52:14.615Z,5.87
2018-04-28T15:54:43.441Z,6.70
2018-04-28T15:57:12.047Z,5.17
2018-04-28T15:59:40.222Z,4.47
2018-04-28T16:02:09.449Z,5.20
2018-04-28T16:04:38.082Z,5.33
2018-04-28T16:07:06.237Z,5.73
2018-04-28T16:09:34.730Z,5.47
2018-04-28T16:12:03.438Z,7.27
2018-04-28T16:14:32.042Z,4.93
2018-04-28T16:17:00.604Z,4.00
2018-04-28T16:19:29.233Z,5.90
2018-04-28T16:21:57.755Z,6.23
2018-04-28T16:24:25.890Z,7.43
2018-04-28T16:26:56.168Z,4.67
2018-04-28T16:29:26.157Z,5.30
2018-04-28T16:31:54.325Z,8.43
2018-04-28T16:34:22.999Z,7.53
2018-04-28T16:36:51.308Z,7.43
2018-04-28T16:39:19.906Z,5.03
2018-04-28T16:41:48.538Z,5.73
2018-04-28T16:44:17.152Z,5.23
2018-04-28T16:46:45.302Z,5.63
2018-04-28T16:49:14.450Z,5.53
2018-04-28T16:51:44.348Z,6.07
2018-04-28T16:54:13.502Z,4.57
2018-04-28T16:56:42.023Z,5.93
2018-04-28T16:59:10.256Z,8.20
2018-04-28T17:01:38.826Z,5.17
2018-04-28T17:04:07.922Z,5.40
2018-04-28T17:06:36.105Z,6.00
2018-04-28T17:09:05.269Z,5.67
2018-04-28T17:11:33.912Z,5.20
2018-04-28T17:14:02.543Z,7.50
2018-04-28T17:16:31.135Z,7.93
2018-04-28T17:18:59.809Z,5.27
2018-04-28T17:21:28.130Z,8.83
2018-04-28T17:23:57.262Z,5.73
2018-04-28T17:26:25.901Z,7.03
2018-04-28T17:28:55.667Z,5.27
2018-04-28T17:31:24.506Z,6.30
2018-04-28T17:33:53.151Z,6.17
2018-04-28T17:36:21.675Z,5.33
2018-04-28T17:38:49.821Z,4.70
2018-04-28T17:41:19.422Z,7.47
2018-04-28T17:43:48.055Z,5.97
2018-04-28T17:46:16.233Z,6.10
2018-04-28T17:48:45.260Z,4.47
2018-04-28T17:51:13.401Z,5.37
2018-04-28T17:53:41.980Z,4.73
2018-04-28T17:56:10.127Z,6.57
2018-04-28T17:58:38.719Z,5.90
2018-04-28T18:01:07.546Z,5.60
2018-04-28T18:03:35.979Z,6.63
2018-04-28T18:06:05.028Z,3.13
2018-04-28T18:08:33.566Z,2.77
2018-04-28T18:11:02.183Z,4.43
2018-04-28T18:13:30.397Z,4.23
2018-04-28T18:15:59.407Z,2.70
2018-04-28T18:18:27.867Z,4.20
2018-04-28T18:20:56.495Z,4.83
2018-04-28T18:23:24.990Z,4.00
2018-04-28T18:25:53.546Z,3.73
2018-04-28T18:28:22.697Z,2.97
2018-04-28T18:30:51.292Z,3.83
2018-04-28T18:33:20.897Z,4.57
2018-04-28T18:35:49.065Z,3.27
2018-04-28T18:38:18.251Z,5.93
2018-04-28T18:40:46.908Z,3.10
2018-04-28T18:43:15.313Z,7.10
2018-04-28T18:45:43.943Z,4.23
2018-04-28T18:48:12.559Z,4.07
2018-04-28T18:50:41.714Z,3.50
2018-04-28T18:53:10.148Z,4.90
2018-04-28T18:55:39.291Z,9.73
2018-04-28T18:58:08.346Z,7.80
2018-04-28T19:00:36.834Z,8.57
2018-04-28T19:03:05.022Z,4.90
2018-04-28T19:05:33.507Z,3.93
2018-04-28T19:08:01.998Z,3.70
2018-04-28T19:10:30.176Z,5.47
2018-04-28T19:12:59.465Z,6.03
2018-04-28T19:15:27.921Z,5.57
2018-04-28T19:17:56.971Z,3.17
2018-04-28T19:20:26.008Z,5.47
2018-04-28T19:22:54.191Z,4.93
2018-04-28T19:25:22.757Z,5.00
2018-04-28T19:27:51.144Z,3.77
2018-04-28T19:30:19.771Z,5.10
2018-04-28T19:32:48.403Z,3.00
2018-04-28T19:35:17.040Z,3.03
2018-04-28T19:37:45.698Z,3.93
2018-04-28T19:40:14.522Z,2.97
2018-04-28T19:42:42.740Z,4.03
2018-04-28T19:45:11.679Z,4.13
2018-04-28T19:47:41.667Z,5.83
2018-04-28T19:50:10.818Z,4.53
2018-04-28T19:52:39.014Z,4.73
2018-04-28T19:55:07.678Z,2.80
2018-04-28T19:57:35.993Z,5.73
2018-04-28T20:00:04.460Z,5.80
2018-04-28T20:02:33.043Z,3.57
2018-04-28T20:05:01.673Z,6.03
2018-04-28T20:07:30.707Z,4.70
2018-04-28T20:10:00.156Z,4.17
2018-04-28T20:12:29.250Z,5.50
2018-04-28T20:14:57.867Z,5.27
2018-04-28T20:17:26.003Z,5.27
2018-04-28T20:19:54.902Z,6.63
2018-04-28T20:22:36.915Z,6.40
2018-04-28T20:25:17.458Z,5.23
2018-04-28T20:27:45.876Z,7.17
2018-04-28T20:30:14.989Z,5.97
2018-04-28T20:32:43.083Z,7.80
2018-04-28T20:35:11.729Z,7.03
2018-04-28T20:37:40.081Z,8.50
2018-04-28T20:40:09.964Z,4.70
2018-04-28T20:42:38.917Z,5.27
2018-04-28T20:45:08.676Z,6.43
2018-04-28T20:47:36.854Z,5.10
2018-04-28T20:50:05.027Z,5.27
2018-04-28T20:52:34.252Z,5.60
2018-04-28T20:55:02.789Z,5.03
2018-04-28T20:57:32.560Z,5.43
2018-04-28T21:00:00.790Z,4.90
2018-04-28T21:02:28.938Z,5.30
2018-04-28T21:04:57.861Z,5.33
2018-04-28T21:07:27.713Z,3.87
2018-04-28T21:09:57.379Z,6.13
2018-04-28T21:12:25.894Z,5.47
2018-04-28T21:14:54.954Z,6.93
2018-04-28T21:17:23.131Z,5.07
2018-04-28T21:19:51.701Z,5.17
2018-04-28T21:22:20.853Z,4.73
2018-04-28T21:24:49.684Z,6.40
2018-04-28T21:27:18.078Z,7.40
2018-04-28T21:29:46.938Z,7.47
2018-04-28T21:32:15.582Z,5.33
2018-04-28T21:34:44.423Z,5.47
2018-04-28T21:37:12.843Z,9.13
2018-04-28T21:39:40.985Z,4.50
2018-04-28T21:42:10.835Z,7.10
2018-04-28T21:44:39.315Z,5.50
2018-04-28T21:47:07.738Z,4.70
2018-04-28T21:49:36.889Z,7.17
2018-04-28T21:52:06.816Z,7.43
2018-04-28T21:54:34.998Z,8.60
2018-04-28T21:57:03.660Z,6.63
2018-04-28T21:59:31.833Z,4.47
2018-04-28T22:02:00.501Z,6.57
2018-04-28T22:04:29.041Z,5.53
2018-04-28T22:06:57.657Z,7.53
2018-04-28T22:09:25.794Z,3.93
2018-04-28T22:11:54.738Z,3.63
2018-04-28T22:14:23.860Z,4.27
2018-04-28T22:16:52.707Z,3.50
2018-04-28T22:19:21.225Z,3.40
2018-04-28T22:21:49.647Z,5.03
2018-04-28T22:24:18.068Z,4.37
2018-04-28T22:26:46.226Z,4.40
2018-04-28T22:29:15.182Z,4.17
2018-04-28T22:31:43.852Z,6.30
2018-04-28T22:34:12.334Z,7.83
2018-04-28T22:36:40.905Z,4.97
2018-04-28T22:39:09.311Z,4.57
2018-04-28T22:41:39.418Z,6.57
2018-04-28T22:44:08.779Z,5.97
2018-04-28T22:46:36.919Z,5.23
2018-04-28T22:49:05.143Z,4.70
2018-04-28T22:51:33.943Z,5.40
2018-04-28T22:54:02.673Z,6.00
2018-04-28T22:56:31.094Z,5.53
2018-04-28T22:58:59.919Z,7.23
2018-04-28T23:01:28.090Z,7.23
2018-04-28T23:03:56.837Z,7.80
2018-04-28T23:06:25.621Z,7.23
2018-04-28T23:08:54.454Z,7.70
2018-04-28T23:11:22.795Z,5.10
2018-04-28T23:13:51.162Z,6.43
2018-04-28T23:16:19.613Z,5.03
2018-04-28T23:18:47.756Z,6.70
2018-04-28T23:21:17.186Z,7.77
2018-04-28T23:23:45.819Z,5.27
2018-04-28T23:26:13.965Z,7.27
2018-04-28T23:28:42.435Z,6.97
2018-04-28T23:31:10.627Z,4.93
2018-04-28T23:33:40.158Z,6.33
2018-04-28T23:36:08.758Z,6.13
2018-04-28T23:38:36.898Z,8.47
2018-04-28T23:41:05.354Z,5.80
2018-04-28T23:43:34.298Z,7.07
2018-04-28T23:46:02.759Z,4.87
2018-04-28T23:48:30.888Z,5.83
2018-04-28T23:51:00.295Z,6.97
2018-04-28T23:53:28.914Z,5.67
2018-04-28T23:55:58.011Z,6.63
2018-04-28T23:58:26.190Z,7.57
